Time;durP1;ratioP1;P1;durP2;ratioP2;P2;SDS_P1;SDS_P2;PMS_P1;PMS_P2;Temp;Humidity;BMP_temperature;BMP_pressure;BME280_temperature;BME280_humidity;BME280_pressure;Samples;Min_cycle;Max_cycle;Signal;HPM_P1;HPM_P2
2021/03/24 00:01:49;;;;;;;16.60;14.03;;;7.20;36.50;;;;;;4988318;28;20885;-68
2021/03/24 00:04:14;;;;;;;16.30;14.63;;;7.30;35.90;;;;;;4988975;28;20455;-70
2021/03/24 00:06:41;;;;;;;15.63;13.73;;;7.20;36.00;;;;;;4989099;28;20601;-70
2021/03/24 00:09:11;;;;;;;14.50;12.90;;;6.80;37.40;;;;;;4987910;28;20598;-69
2021/03/24 00:11:37;;;;;;;16.60;13.73;;;6.90;37.40;;;;;;4989601;28;20503;-69
2021/03/24 00:14:04;;;;;;;16.90;14.20;;;7.00;37.10;;;;;;4989235;28;20507;-69
2021/03/24 00:16:29;;;;;;;17.27;14.47;;;6.60;37.90;;;;;;4988977;28;20208;-70
2021/03/24 00:18:55;;;;;;;14.90;13.40;;;6.60;37.90;;;;;;4988792;28;20476;-68
2021/03/24 00:21:20;;;;;;;15.33;12.70;;;6.50;38.20;;;;;;4989319;28;20173;-69
2021/03/24 00:23:46;;;;;;;14.30;11.80;;;6.50;38.30;;;;;;4988208;28;20549;-68
2021/03/24 00:26:12;;;;;;;15.50;13.03;;;6.50;38.00;;;;;;4991108;28;20192;-69
2021/03/24 00:28:37;;;;;;;18.00;14.10;;;6.70;38.20;;;;;;4991857;28;20251;-69
2021/03/24 00:31:03;;;;;;;15.03;13.40;;;6.60;37.70;;;;;;4991769;28;20182;-70
2021/03/24 00:33:28;;;;;;;15.10;13.07;;;6.30;38.60;;;;;;4991542;28;20275;-68
2021/03/24 00:35:54;;;;;;;14.13;12.70;;;6.20;39.40;;;;;;4991478;28;20172;-69
2021/03/24 00:38:22;;;;;;;16.00;12.90;;;6.50;39.30;;;;;;4990898;28;20613;-68
2021/03/24 00:40:51;;;;;;;14.50;13.07;;;6.70;38.40;;;;;;4990213;28;20502;-69
2021/03/24 00:43:17;;;;;;;13.77;12.37;;;6.90;37.90;;;;;;4991428;28;20420;-69
2021/03/24 00:45:43;;;;;;;14.90;12.60;;;7.10;37.30;;;;;;4993139;28;20502;-69
2021/03/24 00:48:34;;;;;;;13.77;12.37;;;7.10;37.00;;;;;;4992597;28;20430;-69
2021/03/24 00:51:00;;;;;;;13.83;12.47;;;7.30;36.50;;;;;;4992526;28;20199;-70
2021/03/24 00:53:26;;;;;;;13.37;11.97;;;7.30;36.00;;;;;;4991426;28;20451;-70
2021/03/24 00:55:53;;;;;;;12.80;11.60;;;7.40;35.90;;;;;;4992476;28;20413;-69
2021/03/24 00:58:19;;;;;;;15.10;12.50;;;7.30;36.00;;;;;;4992581;28;20500;-70
2021/03/24 01:00:46;;;;;;;12.87;11.50;;;7.10;36.40;;;;;;4992797;28;20801;-68
2021/03/24 01:03:12;;;;;;;13.50;12.20;;;7.10;36.10;;;;;;4992786;28;20447;-69
2021/03/24 01:05:40;;;;;;;15.17;12.30;;;7.00;36.40;;;;;;4992824;28;20856;-69
2021/03/24 01:08:34;;;;;;;14.33;11.50;;;7.10;36.00;;;;;;4992282;28;20452;-70
2021/03/24 01:11:00;;;;;;;14.90;12.37;;;7.20;35.80;;;;;;4989544;28;20449;-70
2021/03/24 01:13:26;;;;;;;14.87;12.63;;;7.20;35.50;;;;;;4992611;28;20974;-69
2021/03/24 01:15:53;;;;;;;13.00;11.70;;;7.30;35.20;;;;;;4992948;28;20409;-70
2021/03/24 01:18:19;;;;;;;14.33;12.40;;;7.20;34.90;;;;;;4992233;28;20519;-69
2021/03/24 01:20:45;;;;;;;13.23;11.83;;;7.10;35.00;;;;;;4992788;28;20764;-69
2021/03/24 01:23:11;;;;;;;16.97;12.07;;;7.10;35.40;;;;;;4991428;28;20444;-68
2021/03/24 01:25:37;;;;;;;13.97;12.50;;;7.10;35.50;;;;;;4992563;28;20406;-69
2021/03/24 01:28:06;;;;;;;17.43;13.17;;;7.00;35.60;;;;;;4992120;28;20213;-69
2021/03/24 01:30:33;;;;;;;16.77;13.13;;;6.90;35.50;;;;;;4992551;28;20437;-69
2021/03/24 01:32:59;;;;;;;14.20;12.67;;;6.90;35.60;;;;;;4992124;28;21072;-69
2021/03/24 01:35:25;;;;;;;15.73;13.17;;;6.90;35.70;;;;;;4992299;28;20428;-70
2021/03/24 01:37:52;;;;;;;15.87;14.47;;;7.00;36.00;;;;;;4991647;28;20605;-68
2021/03/24 01:40:24;;;;;;;13.40;12.00;;;7.00;36.10;;;;;;4992125;28;20444;-69
2021/03/24 01:42:51;;;;;;;12.90;11.50;;;7.10;36.00;;;;;;4992237;28;21039;-69
2021/03/24 01:45:16;;;;;;;12.77;11.47;;;7.00;36.10;;;;;;4992020;28;20939;-69
2021/03/24 01:47:43;;;;;;;15.20;11.87;;;7.00;36.40;;;;;;4991509;28;20413;-69
2021/03/24 01:50:15;;;;;;;13.90;12.50;;;6.90;36.10;;;;;;4992081;28;20248;-70
2021/03/24 01:52:42;;;;;;;16.00;14.03;;;6.80;36.60;;;;;;4991933;28;20806;-70
2021/03/24 01:55:09;;;;;;;16.53;14.87;;;6.40;37.10;;;;;;4991891;28;20514;-69
2021/03/24 01:57:36;;;;;;;18.53;14.33;;;6.40;37.40;;;;;;4991324;28;20456;-69
2021/03/24 02:00:11;;;;;;;16.27;13.20;;;6.30;37.70;;;;;;4991667;28;20412;-70
2021/03/24 02:02:37;;;;;;;15.80;14.13;;;6.60;37.40;;;;;;4991713;28;20441;-69
2021/03/24 02:05:06;;;;;;;15.00;13.50;;;6.50;37.40;;;;;;4991795;28;20415;-69
2021/03/24 02:07:55;;;;;;;18.30;14.70;;;6.60;37.40;;;;;;4991151;28;20428;-69
2021/03/24 02:10:44;;;;;;;15.50;13.57;;;6.60;37.30;;;;;;4991694;28;20423;-69
2021/03/24 02:13:29;;;;;;;14.20;12.67;;;6.70;37.10;;;;;;4991932;28;20428;-69
2021/03/24 02:16:02;;;;;;;13.10;11.73;;;6.90;36.60;;;;;;4991728;28;20424;-70
2021/03/24 02:18:32;;;;;;;13.77;12.13;;;7.00;36.20;;;;;;4991144;28;20456;-70
2021/03/24 02:21:15;;;;;;;14.50;13.00;;;6.90;36.40;;;;;;4991790;28;20781;-70
2021/03/24 02:23:40;;;;;;;14.53;12.90;;;6.90;36.20;;;;;;4991631;28;20437;-70
2021/03/24 02:26:30;;;;;;;14.27;12.77;;;6.70;36.30;;;;;;4991666;28;20409;-70
2021/03/24 02:29:00;;;;;;;14.47;12.33;;;6.70;36.00;;;;;;4991064;28;20641;-69
2021/03/24 02:31:28;;;;;;;15.70;14.00;;;6.80;36.10;;;;;;4991720;28;20404;-69
2021/03/24 02:33:55;;;;;;;16.33;12.37;;;6.80;36.00;;;;;;4991544;28;20439;-70
2021/03/24 02:36:23;;;;;;;15.03;12.57;;;6.70;35.90;;;;;;4991630;28;20523;-69
2021/03/24 02:38:52;;;;;;;14.63;13.10;;;6.90;35.60;;;;;;4990828;28;21029;-69
2021/03/24 02:41:19;;;;;;;14.33;12.50;;;6.80;35.40;;;;;;4991756;28;20922;-69
2021/03/24 02:43:45;;;;;;;13.80;12.40;;;6.90;35.30;;;;;;4991622;28;20506;-69
2021/03/24 02:46:13;;;;;;;15.73;13.23;;;6.70;35.80;;;;;;4991669;28;20927;-70
2021/03/24 02:48:40;;;;;;;13.60;12.20;;;6.70;36.00;;;;;;4991064;28;20409;-68
2021/03/24 02:51:10;;;;;;;13.77;12.23;;;6.80;35.50;;;;;;4991453;28;20422;-69
2021/03/24 02:53:38;;;;;;;15.13;12.60;;;6.70;35.70;;;;;;4991247;28;20462;-69
2021/03/24 02:56:06;;;;;;;15.00;13.30;;;6.70;35.80;;;;;;4989940;28;20424;-69
2021/03/24 02:58:32;;;;;;;16.47;12.93;;;6.70;35.70;;;;;;4990680;28;20464;-70
2021/03/24 03:01:01;;;;;;;14.70;13.30;;;6.80;35.50;;;;;;4991430;28;20411;-69
2021/03/24 03:03:31;;;;;;;14.97;13.47;;;6.60;35.60;;;;;;4991200;28;20448;-69
2021/03/24 03:05:58;;;;;;;16.33;14.13;;;6.60;36.10;;;;;;4991339;28;20783;-69
2021/03/24 03:08:36;;;;;;;16.63;13.83;;;6.50;36.50;;;;;;4990788;28;21079;-69
2021/03/24 03:11:09;;;;;;;15.27;13.67;;;6.70;35.90;;;;;;4991496;28;20412;-69
2021/03/24 03:13:40;;;;;;;14.37;12.87;;;6.50;36.20;;;;;;4991483;28;20443;-69
2021/03/24 03:16:22;;;;;;;18.43;13.47;;;6.60;36.40;;;;;;4991421;28;20440;-70
2021/03/24 03:19:07;;;;;;;14.23;12.77;;;6.70;36.10;;;;;;4993955;28;20987;-70
2021/03/24 03:21:54;;;;;;;15.33;13.27;;;6.60;35.80;;;;;;4995256;28;20417;-70
2021/03/24 03:24:25;;;;;;;16.73;13.07;;;6.40;35.90;;;;;;4995603;28;20777;-69
2021/03/24 03:26:55;;;;;;;19.73;13.70;;;6.30;36.60;;;;;;4995550;28;20419;-69
2021/03/24 03:29:22;;;;;;;16.23;13.70;;;6.30;36.90;;;;;;4994791;28;20408;-69
2021/03/24 03:31:51;;;;;;;14.63;12.67;;;6.40;36.70;;;;;;4994910;28;20833;-68
2021/03/24 03:34:21;;;;;;;15.67;13.23;;;6.40;36.70;;;;;;4994888;28;20415;-70
2021/03/24 03:36:51;;;;;;;17.97;14.37;;;6.30;37.40;;;;;;4994687;28;20423;-70
2021/03/24 03:39:19;;;;;;;15.10;13.60;;;6.50;36.70;;;;;;4994062;28;20439;-69
2021/03/24 03:41:46;;;;;;;16.60;14.90;;;6.40;37.10;;;;;;4994537;28;20451;-69
2021/03/24 03:44:13;;;;;;;14.90;13.30;;;6.40;36.70;;;;;;4994408;28;20424;-69
2021/03/24 03:46:44;;;;;;;14.57;13.07;;;6.50;36.40;;;;;;4994286;28;20494;-70
2021/03/24 03:49:10;;;;;;;14.63;13.13;;;6.30;36.70;;;;;;4993447;28;20924;-69
2021/03/24 03:51:54;;;;;;;16.70;14.97;;;6.50;36.30;;;;;;4994144;28;20471;-69
2021/03/24 03:54:33;;;;;;;14.00;12.60;;;6.40;36.50;;;;;;4994179;28;20181;-69
2021/03/24 03:57:05;;;;;;;14.97;13.40;;;6.40;36.70;;;;;;4993758;28;20420;-69
2021/03/24 03:59:51;;;;;;;15.40;13.30;;;6.50;36.30;;;;;;4994136;28;20493;-70
2021/03/24 04:02:20;;;;;;;15.50;14.20;;;6.40;36.70;;;;;;4992886;28;20459;-70
2021/03/24 04:05:12;;;;;;;15.10;13.53;;;6.30;36.80;;;;;;4994026;28;20416;-70
2021/03/24 04:08:02;;;;;;;14.50;13.00;;;6.30;37.40;;;;;;4987102;28;20436;-70
2021/03/24 04:10:30;;;;;;;15.37;12.90;;;6.20;36.90;;;;;;4994046;28;20422;-69
2021/03/24 04:12:56;;;;;;;16.47;13.60;;;6.10;36.90;;;;;;4994110;28;20449;-69
2021/03/24 04:15:23;;;;;;;17.43;15.63;;;6.00;37.30;;;;;;4994105;28;20416;-70
2021/03/24 04:17:57;;;;;;;16.67;14.60;;;6.10;37.10;;;;;;5008586;28;20687;-70
2021/03/24 04:20:25;;;;;;;14.53;13.23;;;6.00;37.30;;;;;;4993900;28;20435;-70
2021/03/24 04:22:52;;;;;;;19.17;14.03;;;6.10;37.30;;;;;;4993612;28;20443;-70
2021/03/24 04:25:43;;;;;;;15.80;13.93;;;6.20;36.90;;;;;;4993704;28;20417;-70
2021/03/24 04:28:13;;;;;;;18.23;15.80;;;6.30;37.20;;;;;;4992397;28;20474;-69
2021/03/24 04:30:45;;;;;;;18.23;14.17;;;6.40;36.50;;;;;;4992755;28;20424;-70
2021/03/24 04:33:11;;;;;;;20.73;16.33;;;6.30;37.00;;;;;;4993374;28;20452;-69
2021/03/24 04:35:41;;;;;;;17.47;14.47;;;6.40;36.60;;;;;;4993554;28;20926;-69
2021/03/24 04:38:24;;;;;;;17.30;15.30;;;6.40;36.80;;;;;;4992982;28;20834;-70
2021/03/24 04:40:54;;;;;;;18.17;15.60;;;6.20;36.90;;;;;;4993256;28;20938;-70
2021/03/24 04:43:23;;;;;;;17.07;15.37;;;6.40;37.00;;;;;;4993234;28;20559;-70
2021/03/24 04:45:55;;;;;;;15.93;14.17;;;6.20;37.00;;;;;;4993215;28;20412;-70
2021/03/24 04:48:37;;;;;;;14.83;13.37;;;6.10;37.40;;;;;;4992723;28;20418;-70
2021/03/24 04:51:33;;;;;;;16.10;14.43;;;6.10;37.70;;;;;;4993261;28;20812;-70
2021/03/24 04:54:13;;;;;;;19.10;14.13;;;6.20;36.80;;;;;;4980883;28;20802;-70
2021/03/24 04:56:41;;;;;;;15.77;13.37;;;6.20;37.10;;;;;;4993026;28;20495;-68
2021/03/24 04:59:09;;;;;;;15.07;13.57;;;6.10;37.10;;;;;;4992065;28;20493;-69
2021/03/24 05:01:48;;;;;;;15.10;13.60;;;6.00;37.40;;;;;;4992705;28;20441;-69
2021/03/24 05:04:39;;;;;;;20.20;14.17;;;6.10;37.30;;;;;;4993003;28;20404;-69
2021/03/24 05:07:35;;;;;;;16.93;14.17;;;6.00;37.60;;;;;;4992301;28;20428;-69
2021/03/24 05:10:01;;;;;;;15.37;13.63;;;6.10;37.00;;;;;;4992748;28;20976;-70
2021/03/24 05:12:32;;;;;;;15.37;13.77;;;6.20;37.00;;;;;;4992651;28;20439;-69
2021/03/24 05:15:02;;;;;;;16.83;15.03;;;6.20;37.20;;;;;;4992768;28;20792;-69
2021/03/24 05:17:32;;;;;;;20.60;16.53;;;6.20;37.40;;;;;;4992244;28;20470;-69
2021/03/24 05:20:00;;;;;;;18.80;15.93;;;6.10;36.80;;;;;;4992565;28;20409;-70
2021/03/24 05:22:39;;;;;;;17.60;15.43;;;6.10;37.30;;;;;;4982023;28;20984;-70
2021/03/24 05:25:20;;;;;;;20.83;16.67;;;6.20;37.10;;;;;;4991857;28;20455;-69
2021/03/24 05:28:05;;;;;;;18.10;15.00;;;6.20;37.10;;;;;;4991813;28;20431;-70
2021/03/24 05:30:52;;;;;;;16.77;14.97;;;6.10;37.50;;;;;;4992228;28;20508;-69
2021/03/24 05:33:27;;;;;;;19.00;16.20;;;6.20;37.70;;;;;;4984859;28;20471;-68
2021/03/24 05:36:11;;;;;;;17.70;14.90;;;6.30;37.10;;;;;;4975834;28;20552;-69
2021/03/24 05:38:41;;;;;;;15.47;13.90;;;6.40;36.50;;;;;;4971763;28;20479;-68
2021/03/24 05:41:43;;;;;;;16.23;14.43;;;6.40;36.80;;;;;;4983555;28;20432;-66
2021/03/24 05:44:46;;;;;;;16.00;14.40;;;6.30;36.50;;;;;;4971557;28;20430;-67
2021/03/24 05:47:35;;;;;;;16.83;15.03;;;6.30;36.80;;;;;;4972097;28;20685;-68
2021/03/24 05:50:19;;;;;;;21.03;16.50;;;6.20;37.20;;;;;;4997848;28;20534;-65
2021/03/24 05:53:02;;;;;;;16.27;14.37;;;6.10;37.20;;;;;;4985708;28;20444;-67
2021/03/24 05:55:48;;;;;;;29.43;17.07;;;6.20;37.50;;;;;;4991101;28;20507;-67
2021/03/24 05:58:43;;;;;;;17.70;15.90;;;6.10;37.70;;;;;;4991215;28;20467;-70
2021/03/24 06:01:29;;;;;;;18.60;16.30;;;6.30;37.40;;;;;;4991687;28;20424;-69
2021/03/24 06:04:20;;;;;;;19.13;16.77;;;6.30;37.40;;;;;;4982930;28;20450;-68
2021/03/24 06:07:15;;;;;;;23.50;17.23;;;6.30;37.10;;;;;;4971520;28;20414;-68
2021/03/24 06:10:07;;;;;;;20.63;15.73;;;6.30;37.00;;;;;;4970627;28;20965;-69
2021/03/24 06:12:51;;;;;;;19.07;16.60;;;6.20;37.20;;;;;;4972166;28;20435;-69
2021/03/24 06:15:40;;;;;;;17.90;16.10;;;6.20;37.70;;;;;;4980246;28;20936;-69
2021/03/24 06:18:35;;;;;;;17.67;15.93;;;6.20;37.60;;;;;;4985694;28;20524;-69
2021/03/24 06:21:06;;;;;;;21.50;17.13;;;6.30;36.80;;;;;;4978954;28;20427;-69
2021/03/24 06:23:56;;;;;;;20.70;15.37;;;6.30;37.50;;;;;;4988158;28;20436;-73
2021/03/24 06:26:35;;;;;;;18.63;15.67;;;6.30;38.50;;;;;;4991024;28;20455;-73
2021/03/24 06:29:37;;;;;;;20.10;17.03;;;6.30;37.80;;;;;;4990658;28;20984;-69
2021/03/24 06:32:28;;;;;;;18.40;15.67;;;6.20;38.10;;;;;;4990815;28;20476;-73
2021/03/24 06:35:03;;;;;;;18.33;15.60;;;6.30;39.50;;;;;;5021550;28;20429;-72
2021/03/24 06:37:31;;;;;;;21.37;16.87;;;6.60;39.40;;;;;;4989701;28;20547;-69
2021/03/24 06:40:25;;;;;;;21.00;15.70;;;6.60;37.90;;;;;;4989858;28;20420;-70
2021/03/24 06:43:01;;;;;;;22.23;17.70;;;6.70;36.50;;;;;;4990792;28;20428;-69
2021/03/24 06:45:36;;;;;;;19.67;14.97;;;6.90;37.70;;;;;;4990313;28;20490;-70
2021/03/24 06:48:23;;;;;;;16.70;15.00;;;6.80;36.80;;;;;;4989727;28;20482;-70
2021/03/24 06:51:07;;;;;;;22.70;16.77;;;6.90;37.70;;;;;;4990865;28;20468;-70
2021/03/24 06:54:03;;;;;;;23.30;16.57;;;6.90;38.00;;;;;;4993451;28;20431;-70
2021/03/24 06:56:34;;;;;;;18.00;16.10;;;6.80;36.90;;;;;;4993986;28;20422;-70
2021/03/24 06:59:24;;;;;;;17.47;15.63;;;6.90;36.80;;;;;;4993982;28;20456;-70
2021/03/24 07:02:18;;;;;;;19.57;17.57;;;7.10;36.40;;;;;;4987663;28;20455;-69
2021/03/24 07:04:57;;;;;;;18.40;16.40;;;7.00;37.30;;;;;;4994860;28;20404;-69
2021/03/24 07:07:57;;;;;;;15.63;11.97;;;7.10;38.50;;;;;;4974673;28;20748;-73
2021/03/24 07:10:37;;;;;;;17.67;14.83;;;10.30;52.90;;;;;;4954728;28;20431;-74
2021/03/24 07:13:33;;;;;;;21.13;16.03;;;12.70;29.50;;;;;;4989752;28;20428;-72
2021/03/24 07:16:37;;;;;;;19.73;17.53;;;11.30;28.30;;;;;;4993849;28;20425;-73
2021/03/24 07:19:27;;;;;;;17.47;15.83;;;9.80;29.30;;;;;;4985195;28;20967;-73
2021/03/24 07:22:17;;;;;;;25.57;17.80;;;9.10;31.70;;;;;;4991538;28;20439;-73
2021/03/24 07:25:16;;;;;;;19.73;17.33;;;8.50;31.40;;;;;;4994076;28;20783;-73
2021/03/24 07:28:00;;;;;;;18.10;15.40;;;8.20;32.90;;;;;;4979813;28;20426;-72
2021/03/24 07:30:37;;;;;;;18.97;17.07;;;7.90;35.60;;;;;;4974880;28;20993;-71
2021/03/24 07:33:35;;;;;;;19.23;17.20;;;7.90;34.80;;;;;;4972927;28;20956;-72
2021/03/24 07:36:19;;;;;;;24.17;18.53;;;7.80;35.50;;;;;;4974573;28;20414;-73
2021/03/24 07:38:50;;;;;;;22.23;17.73;;;7.80;34.70;;;;;;4974243;28;20500;-72
2021/03/24 07:41:31;;;;;;;19.77;17.77;;;7.80;35.10;;;;;;4974073;28;20410;-72
2021/03/24 07:44:50;;;;;;;25.10;18.87;;;7.50;35.30;;;;;;4974322;28;20418;-73
2021/03/24 07:47:32;;;;;;;17.33;15.40;;;7.70;35.70;;;;;;4970773;28;20465;-71
2021/03/24 07:50:09;;;;;;;19.30;16.60;;;7.60;35.80;;;;;;4972663;28;20433;-72
2021/03/24 07:52:52;;;;;;;22.83;16.30;;;7.50;35.70;;;;;;4974729;28;20445;-71
2021/03/24 07:55:41;;;;;;;18.67;16.67;;;7.40;36.30;;;;;;4974751;28;20421;-71
2021/03/24 07:58:21;;;;;;;17.77;15.90;;;7.50;36.20;;;;;;4974184;28;20445;-69
2021/03/24 08:01:05;;;;;;;21.80;16.13;;;7.50;36.40;;;;;;4974353;28;20441;-70
2021/03/24 08:03:57;;;;;;;21.50;15.50;;;7.60;36.50;;;;;;4974233;28;20442;-71
2021/03/24 08:06:23;;;;;;;18.10;16.20;;;7.70;35.80;;;;;;4974440;28;20941;-73
2021/03/24 08:08:54;;;;;;;17.83;15.90;;;7.60;35.60;;;;;;4986131;28;20463;-70
2021/03/24 08:11:40;;;;;;;21.57;15.83;;;7.80;35.70;;;;;;4993564;28;20551;-71
2021/03/24 08:14:14;;;;;;;21.13;16.30;;;8.00;35.10;;;;;;4993666;28;20413;-71
2021/03/24 08:17:09;;;;;;;17.60;15.03;;;8.00;34.60;;;;;;4988591;28;20423;-75
2021/03/24 08:20:21;;;;;;;24.87;18.13;;;8.10;34.90;;;;;;4991493;28;20555;-70
2021/03/24 08:23:14;;;;;;;20.07;16.00;;;8.00;34.20;;;;;;4993103;28;20428;-72
2021/03/24 08:26:02;;;;;;;20.20;17.03;;;8.00;34.40;;;;;;4992387;28;20890;-72
2021/03/24 08:28:53;;;;;;;18.87;16.17;;;8.10;34.30;;;;;;4992862;28;20407;-71
2021/03/24 08:31:20;;;;;;;21.00;15.50;;;8.10;33.90;;;;;;4993428;28;20398;-71
2021/03/24 08:34:13;;;;;;;20.07;17.30;;;8.20;33.70;;;;;;4990542;28;20444;-71
2021/03/24 08:37:19;;;;;;;20.93;16.50;;;8.30;33.10;;;;;;4993004;28;20405;-70
2021/03/24 08:39:50;;;;;;;17.83;14.30;;;8.60;33.40;;;;;;4992440;28;20788;-71
2021/03/24 08:42:40;;;;;;;16.23;14.10;;;8.80;33.30;;;;;;4992929;28;20421;-70
2021/03/24 08:45:43;;;;;;;18.50;16.27;;;8.60;32.80;;;;;;4993156;28;20417;-70
2021/03/24 08:48:15;;;;;;;16.80;14.80;;;8.70;32.60;;;;;;4991979;28;20403;-72
2021/03/24 08:50:49;;;;;;;16.10;14.40;;;8.90;31.60;;;;;;4992855;28;20410;-70
2021/03/24 08:53:29;;;;;;;13.67;12.27;;;8.90;31.50;;;;;;4992613;28;20523;-71
2021/03/24 08:56:13;;;;;;;17.70;14.20;;;9.00;31.70;;;;;;4991804;28;20432;-70
2021/03/24 08:58:45;;;;;;;15.70;13.87;;;8.90;32.10;;;;;;4992240;28;20440;-69
2021/03/24 09:01:39;;;;;;;19.37;16.23;;;8.90;31.80;;;;;;4992773;28;20924;-70
2021/03/24 09:04:32;;;;;;;30.33;15.70;;;9.00;31.60;;;;;;5001517;28;20909;-68
2021/03/24 09:07:08;;;;;;;18.57;14.47;;;9.20;31.80;;;;;;4977702;28;20824;-70
2021/03/24 09:09:41;;;;;;;17.60;15.57;;;9.40;31.10;;;;;;4991930;28;20405;-70
2021/03/24 09:12:20;;;;;;;19.20;13.73;;;9.60;30.60;;;;;;4992395;28;20551;-68
2021/03/24 09:15:08;;;;;;;19.10;14.57;;;9.60;30.50;;;;;;4992266;28;20947;-70
2021/03/24 09:18:04;;;;;;;19.93;15.63;;;9.50;30.90;;;;;;4990716;28;20859;-71
2021/03/24 09:20:57;;;;;;;16.60;14.43;;;9.60;30.80;;;;;;4992576;28;20414;-72
2021/03/24 09:23:56;;;;;;;18.03;14.70;;;9.70;30.70;;;;;;4992390;28;20429;-70
2021/03/24 09:26:51;;;;;;;18.87;15.10;;;9.70;30.70;;;;;;4991833;28;20420;-72
2021/03/24 09:30:02;;;;;;;17.10;15.20;;;9.80;30.40;;;;;;4991507;28;20415;-70
2021/03/24 09:32:33;;;;;;;16.50;14.70;;;9.60;30.70;;;;;;4991125;28;20956;-72
2021/03/24 09:35:04;;;;;;;20.00;13.67;;;9.80;30.30;;;;;;4991946;28;20851;-72
2021/03/24 09:37:42;;;;;;;26.07;19.70;;;9.70;30.40;;;;;;4991302;28;20471;-74
2021/03/24 09:40:12;;;;;;;18.13;15.47;;;10.10;29.40;;;;;;4989255;28;20424;-74
2021/03/24 09:42:46;;;;;;;18.60;16.00;;;10.20;29.00;;;;;;4990647;28;20465;-71
2021/03/24 09:45:23;;;;;;;17.20;15.40;;;10.30;28.90;;;;;;4990701;28;20872;-69
2021/03/24 09:48:06;;;;;;;18.03;14.10;;;10.50;28.60;;;;;;4990779;28;20463;-71
2021/03/24 09:50:44;;;;;;;18.40;14.47;;;10.40;28.50;;;;;;4991379;28;20504;-68
2021/03/24 09:53:20;;;;;;;16.63;14.93;;;10.70;27.80;;;;;;4991470;28;21023;-71
2021/03/24 09:55:54;;;;;;;16.20;14.00;;;11.10;28.00;;;;;;4991087;28;20413;-71
2021/03/24 09:58:24;;;;;;;17.63;14.80;;;11.40;27.10;;;;;;4990702;28;20456;-68
2021/03/24 10:01:11;;;;;;;16.50;14.73;;;11.60;27.50;;;;;;4984257;28;20426;-69
2021/03/24 10:04:04;;;;;;;15.57;13.97;;;11.50;26.10;;;;;;4988870;28;20445;-71
2021/03/24 10:06:35;;;;;;;20.33;15.20;;;11.50;26.10;;;;;;4979787;28;20423;-70
2021/03/24 10:09:25;;;;;;;17.83;15.27;;;11.70;26.40;;;;;;4970696;28;20434;-69
2021/03/24 10:12:06;;;;;;;18.37;14.30;;;12.10;26.20;;;;;;4988675;28;20784;-71
2021/03/24 10:14:57;;;;;;;26.97;15.70;;;12.30;25.60;;;;;;4988809;28;20429;-69
2021/03/24 10:17:31;;;;;;;14.40;11.90;;;12.40;25.60;;;;;;4981136;28;21016;-69
2021/03/24 10:20:08;;;;;;;16.73;14.97;;;12.60;24.60;;;;;;4977647;28;20517;-71
2021/03/24 10:22:55;;;;;;;19.17;14.47;;;12.60;24.60;;;;;;4971088;28;20526;-70
2021/03/24 10:25:46;;;;;;;17.83;15.63;;;12.90;24.50;;;;;;4986197;28;20411;-72
2021/03/24 10:28:18;;;;;;;15.73;14.13;;;13.10;24.60;;;;;;4982983;28;20460;-70
2021/03/24 10:30:57;;;;;;;21.93;15.77;;;13.00;23.70;;;;;;4980191;28;20413;-71
2021/03/24 10:33:39;;;;;;;19.13;13.63;;;13.00;23.70;;;;;;4989765;28;20468;-69
2021/03/24 10:36:46;;;;;;;17.27;15.27;;;13.30;23.50;;;;;;4990487;28;20437;-72
2021/03/24 10:39:26;;;;;;;15.23;13.57;;;13.50;23.40;;;;;;4949619;28;550211;-69
2021/03/24 10:42:00;;;;;;;17.10;14.80;;;14.00;23.50;;;;;;4969317;28;20422;-72
2021/03/24 10:44:51;;;;;;;21.50;14.90;;;14.10;22.00;;;;;;4982978;28;20467;-72
2021/03/24 10:47:28;;;;;;;15.33;13.80;;;14.00;22.30;;;;;;5021636;28;20429;-70
2021/03/24 10:50:21;;;;;;;16.20;14.70;;;13.90;22.60;;;;;;4989706;28;20408;-70
2021/03/24 10:52:58;;;;;;;18.03;16.10;;;13.70;23.20;;;;;;4991191;28;20453;-72
2021/03/24 10:55:26;;;;;;;17.20;15.27;;;13.80;22.50;;;;;;4988959;28;20412;-70
2021/03/24 10:58:19;;;;;;;15.80;14.27;;;13.70;23.00;;;;;;4990293;28;20469;-71
2021/03/24 11:00:59;;;;;;;15.50;14.10;;;13.80;23.10;;;;;;4990729;28;20560;-69
2021/03/24 11:03:31;;;;;;;17.40;14.37;;;13.80;22.40;;;;;;4990167;28;20916;-73
2021/03/24 11:05:59;;;;;;;16.33;13.40;;;14.00;22.40;;;;;;4990581;28;20484;-70
2021/03/24 11:08:39;;;;;;;16.10;14.43;;;14.20;22.40;;;;;;4990336;28;20425;-70
2021/03/24 11:11:21;;;;;;;16.30;14.70;;;14.40;22.30;;;;;;4989818;28;20425;-70
2021/03/24 11:14:01;;;;;;;15.93;14.33;;;14.10;22.20;;;;;;5006143;28;20456;-70
2021/03/24 11:16:50;;;;;;;16.33;14.33;;;14.40;22.00;;;;;;4990622;28;20567;-73
2021/03/24 11:19:29;;;;;;;20.53;15.43;;;14.50;21.80;;;;;;5004787;28;20519;-71
2021/03/24 11:22:00;;;;;;;18.27;15.57;;;14.60;21.70;;;;;;4990565;28;20448;-72
2021/03/24 11:25:00;;;;;;;17.17;15.37;;;14.70;21.90;;;;;;4989723;28;20421;-70
2021/03/24 11:27:39;;;;;;;17.23;15.10;;;14.80;21.10;;;;;;4990398;28;20421;-70
2021/03/24 11:30:36;;;;;;;17.50;15.70;;;15.10;21.30;;;;;;4990167;28;20507;-70
2021/03/24 11:33:05;;;;;;;20.03;15.83;;;15.30;21.40;;;;;;4983997;28;20457;-70
2021/03/24 11:35:42;;;;;;;19.40;17.10;;;15.20;20.80;;;;;;4984827;28;20429;-71
2021/03/24 11:38:35;;;;;;;16.60;14.83;;;15.10;20.30;;;;;;4980865;28;20878;-70
2021/03/24 11:41:13;;;;;;;17.20;15.60;;;15.30;20.20;;;;;;4975880;28;21029;-70
2021/03/24 11:43:42;;;;;;;17.10;15.33;;;15.60;19.90;;;;;;4986067;28;20955;-70
2021/03/24 11:46:41;;;;;;;17.33;15.10;;;15.30;19.80;;;;;;4986592;28;20421;-69
2021/03/24 11:49:40;;;;;;;19.13;14.50;;;15.50;20.40;;;;;;4969369;28;20449;-70
2021/03/24 11:52:12;;;;;;;20.13;16.83;;;15.70;20.20;;;;;;4978111;28;20450;-70
2021/03/24 11:55:15;;;;;;;23.30;17.77;;;15.70;20.10;;;;;;4989529;28;20421;-69
2021/03/24 11:57:40;;;;;;;19.67;15.43;;;16.00;20.10;;;;;;4985989;28;20581;-69
2021/03/24 12:00:40;;;;;;;16.57;14.77;;;16.00;19.40;;;;;;4983648;28;20421;-70
2021/03/24 12:03:15;;;;;;;18.80;16.93;;;16.10;19.50;;;;;;4992729;28;20197;-69
2021/03/24 12:05:45;;;;;;;21.53;16.97;;;16.00;19.10;;;;;;4993759;28;20413;-72
2021/03/24 12:08:16;;;;;;;18.57;16.57;;;15.70;19.60;;;;;;4992828;28;20422;-70
2021/03/24 12:10:55;;;;;;;18.40;14.80;;;15.50;20.90;;;;;;4994032;28;20753;-69
2021/03/24 12:13:34;;;;;;;17.53;15.80;;;15.50;20.60;;;;;;4993379;28;20440;-69
2021/03/24 12:16:05;;;;;;;18.80;16.90;;;15.20;20.60;;;;;;4992665;28;20435;-70
2021/03/24 12:18:51;;;;;;;19.13;17.27;;;15.10;21.10;;;;;;4992507;28;20553;-70
2021/03/24 12:21:33;;;;;;;19.87;15.67;;;15.20;21.10;;;;;;4993174;28;20424;-71
2021/03/24 12:24:02;;;;;;;22.60;16.77;;;15.00;21.30;;;;;;4993247;28;20457;-71
2021/03/24 12:26:36;;;;;;;18.83;16.80;;;15.00;21.50;;;;;;4993257;28;20417;-72
2021/03/24 12:29:19;;;;;;;18.60;16.67;;;15.00;21.40;;;;;;4994674;28;20424;-73
2021/03/24 12:32:02;;;;;;;18.57;16.77;;;15.00;21.90;;;;;;4993504;28;20424;-72
2021/03/24 12:34:30;;;;;;;20.90;17.20;;;15.10;21.60;;;;;;4993347;28;20419;-71
2021/03/24 12:36:59;;;;;;;17.67;15.80;;;15.00;22.80;;;;;;4993578;28;20915;-71
2021/03/24 12:39:30;;;;;;;18.57;16.60;;;15.10;22.00;;;;;;4992480;28;20455;-74
2021/03/24 12:42:32;;;;;;;19.90;16.00;;;15.00;21.70;;;;;;4992683;28;20429;-71
2021/03/24 12:45:01;;;;;;;18.43;16.63;;;15.10;22.70;;;;;;4992810;28;20413;-71
2021/03/24 12:47:33;;;;;;;19.90;16.77;;;15.00;21.80;;;;;;4992433;28;20413;-70
2021/03/24 12:50:29;;;;;;;18.17;15.97;;;15.10;22.20;;;;;;4991825;28;20472;-72
2021/03/24 12:53:28;;;;;;;21.60;15.83;;;15.20;22.00;;;;;;4992040;28;20543;-74
2021/03/24 12:56:32;;;;;;;18.00;16.17;;;15.10;22.30;;;;;;4991382;28;20425;-72
2021/03/24 12:59:12;;;;;;;24.00;16.73;;;15.20;22.80;;;;;;4989466;28;20482;-74
2021/03/24 13:01:52;;;;;;;18.10;16.27;;;15.30;23.40;;;;;;4991360;28;20432;-72
2021/03/24 13:04:48;;;;;;;17.20;15.50;;;15.30;22.30;;;;;;4992364;28;20436;-74
2021/03/24 13:07:35;;;;;;;18.07;16.30;;;15.40;22.00;;;;;;4985469;28;20428;-73
2021/03/24 13:10:07;;;;;;;24.27;16.00;;;15.20;21.80;;;;;;4989572;28;20908;-72
2021/03/24 13:12:48;;;;;;;17.70;15.97;;;15.20;22.30;;;;;;4991988;28;20433;-77
2021/03/24 13:15:25;;;;;;;17.53;15.30;;;15.10;23.40;;;;;;4989540;28;20424;-73
2021/03/24 13:18:08;;;;;;;16.93;15.13;;;15.10;22.40;;;;;;4989940;28;20552;-73
2021/03/24 13:20:37;;;;;;;17.70;16.00;;;15.10;23.40;;;;;;4991571;28;20467;-70
2021/03/24 13:23:22;;;;;;;19.43;17.33;;;15.20;22.40;;;;;;4990186;28;20524;-73
2021/03/24 13:25:57;;;;;;;19.67;16.47;;;15.20;22.10;;;;;;4989591;28;20429;-75
2021/03/24 13:29:03;;;;;;;19.13;17.33;;;15.10;22.20;;;;;;4990002;28;20424;-75
2021/03/24 13:31:50;;;;;;;30.10;21.77;;;15.20;22.70;;;;;;4952407;28;20953;-72